Fort Wayne, Indiana
Current Conditions -  °F | °C
As of 1:54 AM on Monday 24 Nov 2014 (Local Time) from KFWA Reporting Station
Light Rain Light Rain  
Wind Chill: 13°   Ceiling: 1100
Heat Index: 13°   Visibility: 7mi
Dew Point: 12°   Wind: 24mph
Humidity: 90%   Direction: 220°SW
Pressure: 29.12"   Gusts: 33mph
Location:  41.08°N, 85.1°W
Report Text: KFWA 240654Z 22021G29KT 7SM -RA BKN011 OVC016 13/12 A2912 RMK AO2 PK WND 22029/0645 SLP860 P0007 T01330117 $
Loading
Personal Weather Stations






























Interactive Weather Map New forecast layout! Learn more

10-Day Weather Forecast

Advertisements
Track Severe Weather on mobile